sensor_id;sensor_type;location;lat;lon;timestamp;temperature;humidity
74657;DHT22;63185;45.642;13.764;2023-06-14T00:01:01;22.80;51.20
74657;DHT22;63185;45.642;13.764;2023-06-14T00:03:28;22.80;51.50
74657;DHT22;63185;45.642;13.764;2023-06-14T00:05:54;22.70;51.30
74657;DHT22;63185;45.642;13.764;2023-06-14T00:08:19;22.60;51.70
74657;DHT22;63185;45.642;13.764;2023-06-14T00:10:46;22.70;51.50
74657;DHT22;63185;45.642;13.764;2023-06-14T00:13:12;22.60;51.30
74657;DHT22;63185;45.642;13.764;2023-06-14T00:15:38;22.60;51.80
74657;DHT22;63185;45.642;13.764;2023-06-14T00:18:03;22.50;52.20
74657;DHT22;63185;45.642;13.764;2023-06-14T00:20:30;22.50;52.10
74657;DHT22;63185;45.642;13.764;2023-06-14T00:23:00;22.40;51.80
74657;DHT22;63185;45.642;13.764;2023-06-14T00:25:26;22.40;52.20
74657;DHT22;63185;45.642;13.764;2023-06-14T00:27:52;22.40;52.30
74657;DHT22;63185;45.642;13.764;2023-06-14T00:30:18;22.40;52.50
74657;DHT22;63185;45.642;13.764;2023-06-14T00:32:44;22.40;52.20
74657;DHT22;63185;45.642;13.764;2023-06-14T00:35:10;22.40;52.40
74657;DHT22;63185;45.642;13.764;2023-06-14T00:37:36;22.30;52.50
74657;DHT22;63185;45.642;13.764;2023-06-14T00:40:02;22.40;52.40
74657;DHT22;63185;45.642;13.764;2023-06-14T00:42:28;22.40;52.40
74657;DHT22;63185;45.642;13.764;2023-06-14T00:44:54;22.30;52.50
74657;DHT22;63185;45.642;13.764;2023-06-14T00:47:19;22.40;52.50
74657;DHT22;63185;45.642;13.764;2023-06-14T00:49:46;22.40;51.70
74657;DHT22;63185;45.642;13.764;2023-06-14T00:52:13;22.40;52.00
74657;DHT22;63185;45.642;13.764;2023-06-14T00:54:40;22.40;51.50
74657;DHT22;63185;45.642;13.764;2023-06-14T00:57:06;22.50;50.80
74657;DHT22;63185;45.642;13.764;2023-06-14T00:59:32;22.50;50.50
74657;DHT22;63185;45.642;13.764;2023-06-14T01:01:58;22.50;50.60
74657;DHT22;63185;45.642;13.764;2023-06-14T01:04:24;22.50;50.30
74657;DHT22;63185;45.642;13.764;2023-06-14T01:06:54;22.50;50.10
74657;DHT22;63185;45.642;13.764;2023-06-14T01:09:55;22.50;50.20
74657;DHT22;63185;45.642;13.764;2023-06-14T01:12:15;22.50;50.30
74657;DHT22;63185;45.642;13.764;2023-06-14T01:14:44;22.50;50.50
74657;DHT22;63185;45.642;13.764;2023-06-14T01:17:09;22.50;50.90
74657;DHT22;63185;45.642;13.764;2023-06-14T01:19:42;22.40;50.80
74657;DHT22;63185;45.642;13.764;2023-06-14T01:22:08;22.40;51.20
74657;DHT22;63185;45.642;13.764;2023-06-14T01:24:33;22.40;51.70
74657;DHT22;63185;45.642;13.764;2023-06-14T01:27:00;22.40;51.90
74657;DHT22;63185;45.642;13.764;2023-06-14T01:29:26;22.30;51.90
74657;DHT22;63185;45.642;13.764;2023-06-14T01:31:53;22.30;52.00
74657;DHT22;63185;45.642;13.764;2023-06-14T01:34:19;22.30;52.10
74657;DHT22;63185;45.642;13.764;2023-06-14T01:36:44;22.20;52.10
74657;DHT22;63185;45.642;13.764;2023-06-14T01:39:11;22.10;52.10
74657;DHT22;63185;45.642;13.764;2023-06-14T01:41:39;22.10;52.00
74657;DHT22;63185;45.642;13.764;2023-06-14T01:44:05;22.10;51.90
74657;DHT22;63185;45.642;13.764;2023-06-14T01:46:31;22.10;51.50
74657;DHT22;63185;45.642;13.764;2023-06-14T01:48:56;22.10;51.80
74657;DHT22;63185;45.642;13.764;2023-06-14T01:51:22;22.10;51.90
74657;DHT22;63185;45.642;13.764;2023-06-14T01:53:48;22.20;50.90
74657;DHT22;63185;45.642;13.764;2023-06-14T01:56:13;22.20;51.00
74657;DHT22;63185;45.642;13.764;2023-06-14T01:58:39;22.20;51.30
74657;DHT22;63185;45.642;13.764;2023-06-14T02:01:05;22.20;51.40
74657;DHT22;63185;45.642;13.764;2023-06-14T02:03:32;22.20;51.50
74657;DHT22;63185;45.642;13.764;2023-06-14T02:05:58;22.10;51.70
74657;DHT22;63185;45.642;13.764;2023-06-14T02:08:23;22.10;51.90
74657;DHT22;63185;45.642;13.764;2023-06-14T02:10:49;22.10;52.10
74657;DHT22;63185;45.642;13.764;2023-06-14T02:13:15;22.10;51.60
74657;DHT22;63185;45.642;13.764;2023-06-14T02:15:41;22.10;51.60
74657;DHT22;63185;45.642;13.764;2023-06-14T02:18:08;22.00;51.80
74657;DHT22;63185;45.642;13.764;2023-06-14T02:20:34;22.00;51.90
74657;DHT22;63185;45.642;13.764;2023-06-14T02:23:01;22.10;51.60
74657;DHT22;63185;45.642;13.764;2023-06-14T02:25:26;22.10;51.50
74657;DHT22;63185;45.642;13.764;2023-06-14T02:27:55;22.10;51.90
74657;DHT22;63185;45.642;13.764;2023-06-14T02:30:21;22.00;52.60
74657;DHT22;63185;45.642;13.764;2023-06-14T02:32:47;22.00;52.50
74657;DHT22;63185;45.642;13.764;2023-06-14T02:35:14;21.80;52.80
74657;DHT22;63185;45.642;13.764;2023-06-14T02:37:40;21.90;52.40
74657;DHT22;63185;45.642;13.764;2023-06-14T02:40:05;21.90;52.20
74657;DHT22;63185;45.642;13.764;2023-06-14T02:42:31;22.00;51.70
74657;DHT22;63185;45.642;13.764;2023-06-14T02:44:57;22.00;52.10
74657;DHT22;63185;45.642;13.764;2023-06-14T02:47:22;22.00;51.80
74657;DHT22;63185;45.642;13.764;2023-06-14T02:49:48;22.00;51.60
74657;DHT22;63185;45.642;13.764;2023-06-14T02:52:13;22.00;51.80
74657;DHT22;63185;45.642;13.764;2023-06-14T02:54:39;21.90;52.30
74657;DHT22;63185;45.642;13.764;2023-06-14T02:57:05;21.90;52.40
74657;DHT22;63185;45.642;13.764;2023-06-14T02:59:33;21.90;52.20
74657;DHT22;63185;45.642;13.764;2023-06-14T03:01:58;21.90;52.00
74657;DHT22;63185;45.642;13.764;2023-06-14T03:04:24;21.90;51.90
74657;DHT22;63185;45.642;13.764;2023-06-14T03:06:51;21.90;51.90
74657;DHT22;63185;45.642;13.764;2023-06-14T03:09:17;22.00;51.60
74657;DHT22;63185;45.642;13.764;2023-06-14T03:11:42;22.00;51.40
74657;DHT22;63185;45.642;13.764;2023-06-14T03:14:08;22.00;51.40
74657;DHT22;63185;45.642;13.764;2023-06-14T03:16:34;22.10;51.10
74657;DHT22;63185;45.642;13.764;2023-06-14T03:19:00;22.10;51.10
74657;DHT22;63185;45.642;13.764;2023-06-14T03:21:25;22.10;51.20
74657;DHT22;63185;45.642;13.764;2023-06-14T03:23:51;22.10;51.10
74657;DHT22;63185;45.642;13.764;2023-06-14T03:26:18;22.10;51.10
74657;DHT22;63185;45.642;13.764;2023-06-14T03:28:46;22.10;50.70
74657;DHT22;63185;45.642;13.764;2023-06-14T03:31:13;22.10;50.70
74657;DHT22;63185;45.642;13.764;2023-06-14T03:33:39;22.20;50.70
74657;DHT22;63185;45.642;13.764;2023-06-14T03:36:05;22.20;50.50
74657;DHT22;63185;45.642;13.764;2023-06-14T03:38:32;22.20;50.50
74657;DHT22;63185;45.642;13.764;2023-06-14T03:40:57;22.30;50.30
74657;DHT22;63185;45.642;13.764;2023-06-14T03:43:23;22.40;50.40
74657;DHT22;63185;45.642;13.764;2023-06-14T03:45:48;22.40;50.20
74657;DHT22;63185;45.642;13.764;2023-06-14T03:48:14;22.50;50.00
74657;DHT22;63185;45.642;13.764;2023-06-14T03:50:40;22.60;49.80
74657;DHT22;63185;45.642;13.764;2023-06-14T03:53:05;22.60;49.70
74657;DHT22;63185;45.642;13.764;2023-06-14T03:55:31;22.50;49.90
74657;DHT22;63185;45.642;13.764;2023-06-14T03:57:58;22.60;49.60
74657;DHT22;63185;45.642;13.764;2023-06-14T04:00:23;22.60;49.80
74657;DHT22;63185;45.642;13.764;2023-06-14T04:02:49;22.60;49.60
74657;DHT22;63185;45.642;13.764;2023-06-14T04:05:15;22.60;49.70
74657;DHT22;63185;45.642;13.764;2023-06-14T04:07:42;22.60;49.20
74657;DHT22;63185;45.642;13.764;2023-06-14T04:10:13;22.60;49.60
74657;DHT22;63185;45.642;13.764;2023-06-14T04:12:39;22.60;50.00
74657;DHT22;63185;45.642;13.764;2023-06-14T04:15:04;22.60;50.20
74657;DHT22;63185;45.642;13.764;2023-06-14T04:17:34;22.60;49.70
74657;DHT22;63185;45.642;13.764;2023-06-14T04:19:59;22.70;49.60
74657;DHT22;63185;45.642;13.764;2023-06-14T04:22:25;22.70;50.00
74657;DHT22;63185;45.642;13.764;2023-06-14T04:24:54;22.80;49.20
74657;DHT22;63185;45.642;13.764;2023-06-14T04:27:25;22.80;48.90
74657;DHT22;63185;45.642;13.764;2023-06-14T04:29:54;22.80;49.20
74657;DHT22;63185;45.642;13.764;2023-06-14T04:32:27;22.90;49.40
74657;DHT22;63185;45.642;13.764;2023-06-14T04:34:57;22.90;49.30
74657;DHT22;63185;45.642;13.764;2023-06-14T04:37:24;23.00;49.30
74657;DHT22;63185;45.642;13.764;2023-06-14T04:39:50;23.10;49.10
74657;DHT22;63185;45.642;13.764;2023-06-14T04:42:16;23.10;49.20
74657;DHT22;63185;45.642;13.764;2023-06-14T04:44:45;23.20;48.80
74657;DHT22;63185;45.642;13.764;2023-06-14T04:47:12;23.20;48.50
74657;DHT22;63185;45.642;13.764;2023-06-14T04:49:39;23.30;48.60
74657;DHT22;63185;45.642;13.764;2023-06-14T04:52:06;23.40;48.40
74657;DHT22;63185;45.642;13.764;2023-06-14T04:54:32;23.50;48.40
74657;DHT22;63185;45.642;13.764;2023-06-14T04:56:59;23.50;48.70
74657;DHT22;63185;45.642;13.764;2023-06-14T04:59:24;23.40;48.10
74657;DHT22;63185;45.642;13.764;2023-06-14T05:01:50;23.50;47.90
74657;DHT22;63185;45.642;13.764;2023-06-14T05:04:16;23.50;49.30
74657;DHT22;63185;45.642;13.764;2023-06-14T05:06:42;23.50;48.60
74657;DHT22;63185;45.642;13.764;2023-06-14T05:09:10;23.50;49.10
74657;DHT22;63185;45.642;13.764;2023-06-14T05:11:36;23.60;49.30
74657;DHT22;63185;45.642;13.764;2023-06-14T05:14:01;23.60;49.80
74657;DHT22;63185;45.642;13.764;2023-06-14T05:16:27;23.60;48.90
74657;DHT22;63185;45.642;13.764;2023-06-14T05:18:52;23.60;49.60
74657;DHT22;63185;45.642;13.764;2023-06-14T05:21:18;23.60;49.20
74657;DHT22;63185;45.642;13.764;2023-06-14T05:23:44;23.80;49.00
74657;DHT22;63185;45.642;13.764;2023-06-14T05:26:10;23.80;49.20
74657;DHT22;63185;45.642;13.764;2023-06-14T05:28:36;23.70;49.40
74657;DHT22;63185;45.642;13.764;2023-06-14T05:31:01;23.70;49.40
74657;DHT22;63185;45.642;13.764;2023-06-14T05:33:27;23.70;49.70
74657;DHT22;63185;45.642;13.764;2023-06-14T05:35:53;23.80;49.90
74657;DHT22;63185;45.642;13.764;2023-06-14T05:38:18;23.90;49.60
74657;DHT22;63185;45.642;13.764;2023-06-14T05:40:44;24.00;49.30
74657;DHT22;63185;45.642;13.764;2023-06-14T05:43:10;24.00;49.90
74657;DHT22;63185;45.642;13.764;2023-06-14T05:45:35;24.10;48.70
74657;DHT22;63185;45.642;13.764;2023-06-14T05:48:01;24.20;48.80
74657;DHT22;63185;45.642;13.764;2023-06-14T05:50:27;24.20;48.70
74657;DHT22;63185;45.642;13.764;2023-06-14T05:52:53;24.30;48.20
74657;DHT22;63185;45.642;13.764;2023-06-14T05:55:18;24.30;48.30
74657;DHT22;63185;45.642;13.764;2023-06-14T05:57:44;24.30;48.00
74657;DHT22;63185;45.642;13.764;2023-06-14T06:00:10;24.50;48.20
74657;DHT22;63185;45.642;13.764;2023-06-14T06:02:42;24.50;48.50
74657;DHT22;63185;45.642;13.764;2023-06-14T06:05:11;24.50;47.90
74657;DHT22;63185;45.642;13.764;2023-06-14T06:07:37;24.70;48.00
74657;DHT22;63185;45.642;13.764;2023-06-14T06:10:05;24.90;47.10
74657;DHT22;63185;45.642;13.764;2023-06-14T06:12:31;25.10;47.10
74657;DHT22;63185;45.642;13.764;2023-06-14T06:14:58;25.30;46.90
74657;DHT22;63185;45.642;13.764;2023-06-14T06:17:24;25.60;45.40
74657;DHT22;63185;45.642;13.764;2023-06-14T06:19:50;25.60;46.50
74657;DHT22;63185;45.642;13.764;2023-06-14T06:22:15;25.70;45.50
74657;DHT22;63185;45.642;13.764;2023-06-14T06:24:42;25.80;44.90
74657;DHT22;63185;45.642;13.764;2023-06-14T06:27:07;25.80;44.80
74657;DHT22;63185;45.642;13.764;2023-06-14T06:29:33;25.60;45.80
74657;DHT22;63185;45.642;13.764;2023-06-14T06:31:59;25.60;44.90
74657;DHT22;63185;45.642;13.764;2023-06-14T06:34:24;25.60;44.80
74657;DHT22;63185;45.642;13.764;2023-06-14T06:36:51;25.60;44.90
74657;DHT22;63185;45.642;13.764;2023-06-14T06:39:16;25.60;44.80
74657;DHT22;63185;45.642;13.764;2023-06-14T06:41:42;25.60;44.60
74657;DHT22;63185;45.642;13.764;2023-06-14T06:44:07;25.70;44.80
74657;DHT22;63185;45.642;13.764;2023-06-14T06:46:35;25.80;44.80
74657;DHT22;63185;45.642;13.764;2023-06-14T06:49:05;25.90;44.30
74657;DHT22;63185;45.642;13.764;2023-06-14T06:51:31;26.10;45.10
74657;DHT22;63185;45.642;13.764;2023-06-14T06:53:56;26.20;44.30
74657;DHT22;63185;45.642;13.764;2023-06-14T06:56:22;26.30;43.30
74657;DHT22;63185;45.642;13.764;2023-06-14T06:58:49;26.40;42.60
74657;DHT22;63185;45.642;13.764;2023-06-14T07:01:15;26.40;43.00
74657;DHT22;63185;45.642;13.764;2023-06-14T07:03:41;26.60;42.50
74657;DHT22;63185;45.642;13.764;2023-06-14T07:06:06;26.60;42.00
74657;DHT22;63185;45.642;13.764;2023-06-14T07:08:32;26.80;42.90
74657;DHT22;63185;45.642;13.764;2023-06-14T07:10:57;26.90;42.00
74657;DHT22;63185;45.642;13.764;2023-06-14T07:13:23;27.00;41.40
74657;DHT22;63185;45.642;13.764;2023-06-14T07:15:48;26.80;42.30
74657;DHT22;63185;45.642;13.764;2023-06-14T07:18:15;26.80;41.50
74657;DHT22;63185;45.642;13.764;2023-06-14T07:20:41;26.70;41.80
74657;DHT22;63185;45.642;13.764;2023-06-14T07:23:08;26.80;42.10
74657;DHT22;63185;45.642;13.764;2023-06-14T07:25:33;27.00;41.80
74657;DHT22;63185;45.642;13.764;2023-06-14T07:27:59;27.00;41.40
74657;DHT22;63185;45.642;13.764;2023-06-14T07:30:24;27.00;42.20
74657;DHT22;63185;45.642;13.764;2023-06-14T07:32:52;27.10;41.60
74657;DHT22;63185;45.642;13.764;2023-06-14T07:35:18;27.30;42.30
74657;DHT22;63185;45.642;13.764;2023-06-14T07:37:44;27.40;41.70
74657;DHT22;63185;45.642;13.764;2023-06-14T07:40:10;27.60;41.60
74657;DHT22;63185;45.642;13.764;2023-06-14T07:42:36;27.60;41.80
74657;DHT22;63185;45.642;13.764;2023-06-14T07:45:03;27.90;38.80
74657;DHT22;63185;45.642;13.764;2023-06-14T07:47:28;28.10;38.60
74657;DHT22;63185;45.642;13.764;2023-06-14T07:49:54;28.10;37.40
74657;DHT22;63185;45.642;13.764;2023-06-14T07:52:19;28.00;38.40
74657;DHT22;63185;45.642;13.764;2023-06-14T07:54:45;27.90;38.80
74657;DHT22;63185;45.642;13.764;2023-06-14T07:57:10;27.90;38.40
74657;DHT22;63185;45.642;13.764;2023-06-14T07:59:36;27.80;38.30
74657;DHT22;63185;45.642;13.764;2023-06-14T08:02:02;27.90;37.40
74657;DHT22;63185;45.642;13.764;2023-06-14T08:04:27;28.00;37.60
74657;DHT22;63185;45.642;13.764;2023-06-14T08:06:53;28.10;36.60
74657;DHT22;63185;45.642;13.764;2023-06-14T08:09:18;28.30;35.90
74657;DHT22;63185;45.642;13.764;2023-06-14T08:11:44;28.60;35.00
74657;DHT22;63185;45.642;13.764;2023-06-14T08:14:10;28.70;34.70
74657;DHT22;63185;45.642;13.764;2023-06-14T08:16:36;28.80;35.60
74657;DHT22;63185;45.642;13.764;2023-06-14T08:19:01;28.90;35.80
74657;DHT22;63185;45.642;13.764;2023-06-14T08:21:27;29.10;35.90
74657;DHT22;63185;45.642;13.764;2023-06-14T08:23:54;29.10;34.80
74657;DHT22;63185;45.642;13.764;2023-06-14T08:26:20;28.90;35.60
74657;DHT22;63185;45.642;13.764;2023-06-14T08:28:46;29.00;36.20
74657;DHT22;63185;45.642;13.764;2023-06-14T08:31:11;28.50;36.40
74657;DHT22;63185;45.642;13.764;2023-06-14T08:33:38;28.50;37.60
74657;DHT22;63185;45.642;13.764;2023-06-14T08:36:04;28.60;38.30
74657;DHT22;63185;45.642;13.764;2023-06-14T08:38:30;28.30;38.30
74657;DHT22;63185;45.642;13.764;2023-06-14T08:40:57;28.10;39.00
74657;DHT22;63185;45.642;13.764;2023-06-14T08:43:22;27.90;40.40
74657;DHT22;63185;45.642;13.764;2023-06-14T08:45:48;28.00;39.00
74657;DHT22;63185;45.642;13.764;2023-06-14T08:48:16;27.70;38.40
74657;DHT22;63185;45.642;13.764;2023-06-14T08:50:45;27.60;39.80
74657;DHT22;63185;45.642;13.764;2023-06-14T08:53:12;27.80;40.20
74657;DHT22;63185;45.642;13.764;2023-06-14T08:55:45;27.70;39.10
74657;DHT22;63185;45.642;13.764;2023-06-14T08:58:11;27.70;39.70
74657;DHT22;63185;45.642;13.764;2023-06-14T09:00:42;27.70;39.20
74657;DHT22;63185;45.642;13.764;2023-06-14T09:03:09;27.80;40.00
74657;DHT22;63185;45.642;13.764;2023-06-14T09:05:38;27.80;39.20
74657;DHT22;63185;45.642;13.764;2023-06-14T09:08:04;27.60;40.90
74657;DHT22;63185;45.642;13.764;2023-06-14T09:10:31;27.60;41.20
74657;DHT22;63185;45.642;13.764;2023-06-14T09:13:00;27.30;40.70
74657;DHT22;63185;45.642;13.764;2023-06-14T09:15:25;27.10;41.40
74657;DHT22;63185;45.642;13.764;2023-06-14T09:17:51;26.90;41.70
74657;DHT22;63185;45.642;13.764;2023-06-14T09:20:16;26.80;41.30
74657;DHT22;63185;45.642;13.764;2023-06-14T09:22:45;26.80;41.20
74657;DHT22;63185;45.642;13.764;2023-06-14T09:25:11;26.60;40.40
74657;DHT22;63185;45.642;13.764;2023-06-14T09:27:40;26.40;42.80
74657;DHT22;63185;45.642;13.764;2023-06-14T09:30:08;26.40;43.90
74657;DHT22;63185;45.642;13.764;2023-06-14T09:32:38;26.60;43.30
74657;DHT22;63185;45.642;13.764;2023-06-14T09:35:07;26.90;43.40
74657;DHT22;63185;45.642;13.764;2023-06-14T09:37:33;27.00;43.30
74657;DHT22;63185;45.642;13.764;2023-06-14T09:39:59;27.30;42.40
74657;DHT22;63185;45.642;13.764;2023-06-14T09:42:25;27.40;43.90
74657;DHT22;63185;45.642;13.764;2023-06-14T09:44:54;27.40;42.30
74657;DHT22;63185;45.642;13.764;2023-06-14T09:47:20;27.20;42.80
74657;DHT22;63185;45.642;13.764;2023-06-14T09:49:47;27.30;43.60
74657;DHT22;63185;45.642;13.764;2023-06-14T09:52:19;27.40;42.90
74657;DHT22;63185;45.642;13.764;2023-06-14T09:54:45;27.30;43.10
74657;DHT22;63185;45.642;13.764;2023-06-14T09:57:13;27.30;43.50
74657;DHT22;63185;45.642;13.764;2023-06-14T09:59:42;27.40;43.50
74657;DHT22;63185;45.642;13.764;2023-06-14T10:02:26;27.60;44.00
74657;DHT22;63185;45.642;13.764;2023-06-14T10:04:56;27.70;43.40
74657;DHT22;63185;45.642;13.764;2023-06-14T10:07:23;28.10;43.10
74657;DHT22;63185;45.642;13.764;2023-06-14T10:09:53;28.50;41.60
74657;DHT22;63185;45.642;13.764;2023-06-14T10:12:19;28.40;41.20
74657;DHT22;63185;45.642;13.764;2023-06-14T10:14:48;28.30;41.90
74657;DHT22;63185;45.642;13.764;2023-06-14T10:17:17;28.00;42.10
74657;DHT22;63185;45.642;13.764;2023-06-14T10:20:21;28.00;42.80
74657;DHT22;63185;45.642;13.764;2023-06-14T10:22:38;28.20;42.60
74657;DHT22;63185;45.642;13.764;2023-06-14T10:25:06;28.20;41.00
74657;DHT22;63185;45.642;13.764;2023-06-14T10:27:37;28.30;40.60
74657;DHT22;63185;45.642;13.764;2023-06-14T10:30:03;28.50;40.70
74657;DHT22;63185;45.642;13.764;2023-06-14T10:32:29;28.60;40.70
74657;DHT22;63185;45.642;13.764;2023-06-14T10:34:55;28.50;40.60
74657;DHT22;63185;45.642;13.764;2023-06-14T10:37:21;28.20;40.30
74657;DHT22;63185;45.642;13.764;2023-06-14T10:39:47;28.10;40.50
74657;DHT22;63185;45.642;13.764;2023-06-14T10:42:12;28.10;40.30
74657;DHT22;63185;45.642;13.764;2023-06-14T10:44:50;28.10;39.60
74657;DHT22;63185;45.642;13.764;2023-06-14T10:47:21;27.80;39.90
74657;DHT22;63185;45.642;13.764;2023-06-14T10:49:50;27.80;40.10
74657;DHT22;63185;45.642;13.764;2023-06-14T10:52:16;27.80;40.50
74657;DHT22;63185;45.642;13.764;2023-06-14T10:57:27;27.90;40.40
74657;DHT22;63185;45.642;13.764;2023-06-14T10:59:52;28.00;40.10
74657;DHT22;63185;45.642;13.764;2023-06-14T11:04:47;27.80;43.60
74657;DHT22;63185;45.642;13.764;2023-06-14T11:07:27;27.60;43.80
74657;DHT22;63185;45.642;13.764;2023-06-14T11:12:32;27.60;43.40
74657;DHT22;63185;45.642;13.764;2023-06-14T11:14:58;27.40;43.20
74657;DHT22;63185;45.642;13.764;2023-06-14T11:17:24;27.40;43.50
74657;DHT22;63185;45.642;13.764;2023-06-14T11:19:50;27.20;45.30
74657;DHT22;63185;45.642;13.764;2023-06-14T11:22:15;27.20;45.50
74657;DHT22;63185;45.642;13.764;2023-06-14T11:24:42;27.20;45.50
74657;DHT22;63185;45.642;13.764;2023-06-14T11:27:08;27.20;44.80
74657;DHT22;63185;45.642;13.764;2023-06-14T11:29:34;27.40;44.60
74657;DHT22;63185;45.642;13.764;2023-06-14T11:31:59;27.50;44.40
74657;DHT22;63185;45.642;13.764;2023-06-14T11:34:25;27.50;43.40
74657;DHT22;63185;45.642;13.764;2023-06-14T11:36:51;27.50;44.30
74657;DHT22;63185;45.642;13.764;2023-06-14T11:39:16;27.70;45.10
74657;DHT22;63185;45.642;13.764;2023-06-14T11:41:42;28.10;44.20
74657;DHT22;63185;45.642;13.764;2023-06-14T11:44:08;28.60;42.50
74657;DHT22;63185;45.642;13.764;2023-06-14T11:46:34;28.80;41.70
74657;DHT22;63185;45.642;13.764;2023-06-14T11:49:00;29.00;41.00
74657;DHT22;63185;45.642;13.764;2023-06-14T11:51:29;29.10;40.80
74657;DHT22;63185;45.642;13.764;2023-06-14T11:53:55;29.20;40.60
74657;DHT22;63185;45.642;13.764;2023-06-14T11:56:20;29.10;40.90
74657;DHT22;63185;45.642;13.764;2023-06-14T11:58:46;29.20;40.00
74657;DHT22;63185;45.642;13.764;2023-06-14T12:01:18;29.10;39.50
74657;DHT22;63185;45.642;13.764;2023-06-14T12:03:50;29.00;39.40
74657;DHT22;63185;45.642;13.764;2023-06-14T12:06:16;28.80;38.50
74657;DHT22;63185;45.642;13.764;2023-06-14T12:08:43;28.70;40.20
74657;DHT22;63185;45.642;13.764;2023-06-14T12:11:11;28.70;40.00
74657;DHT22;63185;45.642;13.764;2023-06-14T12:13:40;28.70;39.50
74657;DHT22;63185;45.642;13.764;2023-06-14T12:16:12;28.60;39.50
74657;DHT22;63185;45.642;13.764;2023-06-14T12:18:38;28.50;39.40
74657;DHT22;63185;45.642;13.764;2023-06-14T12:21:08;28.70;42.40
74657;DHT22;63185;45.642;13.764;2023-06-14T12:23:46;28.70;39.40
74657;DHT22;63185;45.642;13.764;2023-06-14T12:26:15;28.60;38.40
74657;DHT22;63185;45.642;13.764;2023-06-14T12:28:42;28.60;40.60
74657;DHT22;63185;45.642;13.764;2023-06-14T12:31:08;28.60;40.90
74657;DHT22;63185;45.642;13.764;2023-06-14T12:33:34;28.60;40.10
74657;DHT22;63185;45.642;13.764;2023-06-14T12:35:59;28.50;39.60
74657;DHT22;63185;45.642;13.764;2023-06-14T12:38:25;28.50;40.00
74657;DHT22;63185;45.642;13.764;2023-06-14T12:40:50;28.60;41.50
74657;DHT22;63185;45.642;13.764;2023-06-14T12:43:16;28.70;39.40
74657;DHT22;63185;45.642;13.764;2023-06-14T12:45:42;29.00;39.20
74657;DHT22;63185;45.642;13.764;2023-06-14T12:48:07;29.20;39.00
74657;DHT22;63185;45.642;13.764;2023-06-14T12:50:34;29.30;38.40
74657;DHT22;63185;45.642;13.764;2023-06-14T12:53:00;29.30;37.00
74657;DHT22;63185;45.642;13.764;2023-06-14T12:55:25;29.40;39.40
74657;DHT22;63185;45.642;13.764;2023-06-14T12:57:51;29.70;38.10
74657;DHT22;63185;45.642;13.764;2023-06-14T13:00:17;29.90;39.30
74657;DHT22;63185;45.642;13.764;2023-06-14T13:02:43;30.10;39.10
74657;DHT22;63185;45.642;13.764;2023-06-14T13:05:09;30.10;38.40
74657;DHT22;63185;45.642;13.764;2023-06-14T13:07:34;30.30;36.60
74657;DHT22;63185;45.642;13.764;2023-06-14T13:10:00;30.20;36.00
74657;DHT22;63185;45.642;13.764;2023-06-14T13:12:26;30.30;36.90
74657;DHT22;63185;45.642;13.764;2023-06-14T13:14:51;30.40;36.00
74657;DHT22;63185;45.642;13.764;2023-06-14T13:17:17;30.20;35.50
74657;DHT22;63185;45.642;13.764;2023-06-14T13:19:42;30.00;35.90
74657;DHT22;63185;45.642;13.764;2023-06-14T13:22:08;30.00;36.40
74657;DHT22;63185;45.642;13.764;2023-06-14T13:24:34;30.10;41.40
74657;DHT22;63185;45.642;13.764;2023-06-14T13:26:59;28.90;50.90
74657;DHT22;63185;45.642;13.764;2023-06-14T13:29:25;28.60;50.20
74657;DHT22;63185;45.642;13.764;2023-06-14T13:31:52;28.50;44.90
74657;DHT22;63185;45.642;13.764;2023-06-14T13:34:18;28.30;44.30
74657;DHT22;63185;45.642;13.764;2023-06-14T13:36:43;28.30;42.40
74657;DHT22;63185;45.642;13.764;2023-06-14T13:39:09;28.30;43.40
74657;DHT22;63185;45.642;13.764;2023-06-14T13:41:36;28.20;43.30
74657;DHT22;63185;45.642;13.764;2023-06-14T13:44:02;28.10;44.50
74657;DHT22;63185;45.642;13.764;2023-06-14T13:46:29;28.10;45.40
74657;DHT22;63185;45.642;13.764;2023-06-14T13:48:54;28.20;45.10
74657;DHT22;63185;45.642;13.764;2023-06-14T13:51:20;28.10;45.40
74657;DHT22;63185;45.642;13.764;2023-06-14T13:53:47;28.10;46.10
74657;DHT22;63185;45.642;13.764;2023-06-14T13:56:12;28.30;45.40
74657;DHT22;63185;45.642;13.764;2023-06-14T13:58:38;28.40;43.90
74657;DHT22;63185;45.642;13.764;2023-06-14T14:01:03;28.50;44.40
74657;DHT22;63185;45.642;13.764;2023-06-14T14:03:29;28.60;45.60
74657;DHT22;63185;45.642;13.764;2023-06-14T14:05:56;28.90;42.70
74657;DHT22;63185;45.642;13.764;2023-06-14T14:08:21;29.10;43.30
74657;DHT22;63185;45.642;13.764;2023-06-14T14:10:47;29.10;40.80
74657;DHT22;63185;45.642;13.764;2023-06-14T14:13:12;29.10;40.30
74657;DHT22;63185;45.642;13.764;2023-06-14T14:15:38;29.50;40.90
74657;DHT22;63185;45.642;13.764;2023-06-14T14:18:03;29.70;40.20
74657;DHT22;63185;45.642;13.764;2023-06-14T14:20:30;29.80;38.90
74657;DHT22;63185;45.642;13.764;2023-06-14T14:22:56;30.10;38.40
74657;DHT22;63185;45.642;13.764;2023-06-14T14:25:21;30.50;43.20
74657;DHT22;63185;45.642;13.764;2023-06-14T14:27:47;30.70;38.00
74657;DHT22;63185;45.642;13.764;2023-06-14T14:30:13;30.50;40.30
74657;DHT22;63185;45.642;13.764;2023-06-14T14:32:39;30.40;40.60
74657;DHT22;63185;45.642;13.764;2023-06-14T14:35:05;30.20;40.40
74657;DHT22;63185;45.642;13.764;2023-06-14T14:37:31;30.00;40.10
74657;DHT22;63185;45.642;13.764;2023-06-14T14:39:57;30.10;38.80
74657;DHT22;63185;45.642;13.764;2023-06-14T14:42:22;30.40;40.50
74657;DHT22;63185;45.642;13.764;2023-06-14T14:44:48;30.90;39.80
74657;DHT22;63185;45.642;13.764;2023-06-14T14:47:13;31.10;37.30
74657;DHT22;63185;45.642;13.764;2023-06-14T14:49:39;31.00;36.00
74657;DHT22;63185;45.642;13.764;2023-06-14T14:52:05;31.20;36.30
74657;DHT22;63185;45.642;13.764;2023-06-14T14:54:30;31.20;36.10
74657;DHT22;63185;45.642;13.764;2023-06-14T14:56:56;31.50;34.80
74657;DHT22;63185;45.642;13.764;2023-06-14T14:59:22;31.90;37.50
74657;DHT22;63185;45.642;13.764;2023-06-14T15:01:47;32.20;34.60
74657;DHT22;63185;45.642;13.764;2023-06-14T15:04:13;32.20;33.90
74657;DHT22;63185;45.642;13.764;2023-06-14T15:06:38;32.00;34.70
74657;DHT22;63185;45.642;13.764;2023-06-14T15:09:05;31.90;35.20
74657;DHT22;63185;45.642;13.764;2023-06-14T15:11:31;31.90;34.80
74657;DHT22;63185;45.642;13.764;2023-06-14T15:13:56;31.80;33.70
74657;DHT22;63185;45.642;13.764;2023-06-14T15:16:22;31.60;35.30
74657;DHT22;63185;45.642;13.764;2023-06-14T15:18:47;31.40;34.90